createdAt,value
2023-05-23T00:02:12.856Z,7.07
2023-05-23T00:04:38.656Z,8.73
2023-05-23T00:07:04.485Z,5.22
2023-05-23T00:09:30.263Z,7.78
2023-05-23T00:11:56.045Z,5.82
2023-05-23T00:14:23.022Z,6.50
2023-05-23T00:16:49.015Z,7.88
2023-05-23T00:19:15.420Z,7.03
2023-05-23T00:21:43.072Z,4.82
2023-05-23T00:24:09.852Z,6.30
2023-05-23T00:26:36.004Z,5.93
2023-05-23T00:29:02.054Z,6.28
2023-05-23T00:31:27.969Z,4.85
2023-05-23T00:33:53.791Z,7.35
2023-05-23T00:36:19.611Z,10.82
2023-05-23T00:38:45.378Z,9.15
2023-05-23T00:41:11.791Z,8.15
2023-05-23T00:43:37.688Z,6.78
2023-05-23T00:46:03.854Z,8.23
2023-05-23T00:48:29.861Z,7.60
2023-05-23T00:50:56.413Z,6.57
2023-05-23T00:53:22.332Z,5.47
2023-05-23T00:55:48.275Z,9.23
2023-05-23T00:58:15.329Z,7.43
2023-05-23T01:00:42.146Z,8.20
2023-05-23T01:03:08.138Z,10.02
2023-05-23T01:05:34.207Z,8.60
2023-05-23T01:08:02.573Z,6.10
2023-05-23T01:10:29.919Z,9.43
2023-05-23T01:12:59.570Z,8.27
2023-05-23T01:15:32.104Z,7.77
2023-05-23T01:17:57.888Z,11.35
2023-05-23T01:20:27.141Z,6.38
2023-05-23T01:23:01.917Z,8.35
2023-05-23T01:25:27.793Z,5.05
2023-05-23T01:27:55.829Z,5.50
2023-05-23T01:30:22.645Z,8.48
2023-05-23T01:32:50.075Z,6.72
2023-05-23T01:35:19.493Z,7.68
2023-05-23T01:40:11.318Z,8.98
2023-05-23T01:42:37.152Z,5.88
2023-05-23T01:45:03.591Z,9.38
2023-05-23T01:47:29.454Z,5.75
2023-05-23T01:49:56.517Z,5.68
2023-05-23T01:52:22.706Z,4.80
2023-05-23T01:54:49.151Z,8.45
2023-05-23T01:57:15.248Z,6.88
2023-05-23T01:59:41.025Z,7.70
2023-05-23T02:02:06.954Z,7.03
2023-05-23T02:04:33.209Z,10.82
2023-05-23T02:06:59.017Z,7.68
2023-05-23T02:09:24.816Z,6.00
2023-05-23T02:11:50.597Z,9.02
2023-05-23T02:14:17.892Z,10.82
2023-05-23T02:16:44.136Z,12.15
2023-05-23T02:19:10.198Z,6.68
2023-05-23T02:21:36.193Z,6.05
2023-05-23T02:24:01.979Z,9.65
2023-05-23T02:26:27.775Z,5.22
2023-05-23T02:28:53.540Z,6.97
2023-05-23T02:31:19.336Z,7.65
2023-05-23T02:33:45.285Z,7.30
2023-05-23T02:36:11.048Z,8.20
2023-05-23T02:38:36.844Z,4.82
2023-05-23T02:41:03.230Z,5.32
2023-05-23T02:43:29.006Z,8.18
2023-05-23T02:45:54.794Z,13.07
2023-05-23T02:48:20.635Z,7.28
2023-05-23T02:50:46.553Z,5.55
2023-05-23T02:53:12.532Z,7.50
2023-05-23T02:55:38.271Z,7.25
2023-05-23T02:58:05.195Z,5.90
2023-05-23T03:00:31.864Z,8.10
2023-05-23T03:02:57.917Z,4.60
2023-05-23T03:05:23.809Z,4.68
2023-05-23T03:07:51.454Z,6.22
2023-05-23T03:10:17.759Z,9.15
2023-05-23T03:12:43.678Z,6.85
2023-05-23T03:15:09.954Z,7.50
2023-05-23T03:17:36.527Z,9.15
2023-05-23T03:20:04.106Z,18.10
2023-05-23T03:22:30.240Z,16.90
2023-05-23T03:24:56.182Z,8.20
2023-05-23T03:27:22.050Z,6.57
2023-05-23T03:29:47.901Z,9.75
2023-05-23T03:32:13.962Z,6.68
2023-05-23T03:34:39.928Z,5.53
2023-05-23T03:37:05.805Z,7.75
2023-05-23T03:39:31.651Z,8.05
2023-05-23T03:41:57.525Z,7.53
2023-05-23T03:44:23.566Z,7.05
2023-05-23T03:46:49.449Z,13.10
2023-05-23T03:49:15.329Z,6.97
2023-05-23T03:51:41.175Z,8.30
2023-05-23T03:54:07.024Z,9.15
2023-05-23T03:56:32.897Z,7.75
2023-05-23T03:58:58.786Z,7.30
2023-05-23T04:01:24.745Z,5.15
2023-05-23T04:03:51.010Z,8.65
2023-05-23T04:06:17.606Z,9.35
2023-05-23T04:08:43.449Z,5.43
2023-05-23T04:11:09.318Z,4.55
2023-05-23T04:13:35.180Z,8.05
2023-05-23T04:16:01.610Z,9.13
2023-05-23T04:18:27.986Z,7.15
2023-05-23T04:20:54.137Z,8.55
2023-05-23T04:23:20.102Z,5.45
2023-05-23T04:25:47.703Z,6.28
2023-05-23T04:28:13.478Z,8.00
2023-05-23T04:30:39.405Z,13.55
2023-05-23T04:33:05.695Z,4.93
2023-05-23T04:35:33.654Z,9.88
2023-05-23T04:37:59.423Z,8.90
2023-05-23T04:40:25.256Z,7.47
2023-05-23T04:42:51.111Z,6.53
2023-05-23T04:45:17.259Z,8.05
2023-05-23T04:47:44.260Z,7.63
2023-05-23T04:50:10.424Z,7.60
2023-05-23T04:52:36.439Z,11.70
2023-05-23T04:55:02.531Z,9.43
2023-05-23T04:57:29.579Z,10.75
2023-05-23T04:59:56.714Z,8.90
2023-05-23T05:02:24.119Z,6.60
2023-05-23T05:04:50.739Z,6.32
2023-05-23T05:07:17.679Z,8.05
2023-05-23T05:09:43.687Z,9.27
2023-05-23T05:12:09.585Z,8.77
2023-05-23T05:14:38.529Z,7.60
2023-05-23T05:17:04.726Z,10.73
2023-05-23T05:19:31.329Z,7.93
2023-05-23T05:21:57.257Z,19.67
2023-05-23T05:24:23.305Z,12.10
2023-05-23T05:26:49.720Z,8.65
2023-05-23T05:29:16.016Z,10.48
2023-05-23T05:31:44.714Z,9.85
2023-05-23T05:34:10.975Z,8.88
2023-05-23T05:36:37.402Z,11.45
2023-05-23T05:39:04.293Z,8.10
2023-05-23T05:41:30.323Z,6.72
2023-05-23T05:46:24.658Z,9.75
2023-05-23T05:48:50.737Z,5.00
2023-05-23T05:51:17.091Z,11.23
2023-05-23T05:53:43.345Z,9.45
2023-05-23T05:56:09.315Z,6.60
2023-05-23T05:58:35.802Z,11.20
2023-05-23T06:01:01.731Z,8.90
2023-05-23T06:03:27.934Z,10.07
2023-05-23T06:05:54.485Z,6.68
2023-05-23T06:08:20.683Z,8.30
2023-05-23T06:10:50.969Z,9.05
2023-05-23T06:13:22.438Z,9.13
2023-05-23T06:15:48.589Z,7.47
2023-05-23T06:18:15.358Z,6.43
2023-05-23T06:20:41.563Z,10.60
2023-05-23T06:23:08.349Z,8.48
2023-05-23T06:25:34.222Z,9.02
2023-05-23T06:28:00.704Z,8.40
2023-05-23T06:30:27.500Z,6.93
2023-05-23T06:32:53.485Z,8.27
2023-05-23T06:35:19.387Z,9.50
2023-05-23T06:37:45.610Z,8.07
2023-05-23T06:40:12.599Z,8.60
2023-05-23T06:42:51.111Z,11.30
2023-05-23T06:45:19.152Z,6.60
2023-05-23T06:47:47.515Z,6.32
2023-05-23T06:50:13.747Z,10.85
2023-05-23T06:52:42.327Z,7.60
2023-05-23T06:55:08.525Z,9.68
2023-05-23T06:57:34.376Z,10.48
2023-05-23T07:00:00.576Z,5.75
2023-05-23T07:02:26.714Z,7.97
2023-05-23T07:04:52.658Z,7.40
2023-05-23T07:07:18.727Z,6.35
2023-05-23T07:09:45.080Z,8.30
2023-05-23T07:12:11.575Z,7.85
2023-05-23T07:14:40.524Z,6.88
2023-05-23T07:17:06.529Z,7.78
2023-05-23T07:19:32.567Z,6.22
2023-05-23T07:21:58.733Z,8.43
2023-05-23T07:24:25.410Z,13.15
2023-05-23T07:26:51.519Z,7.97
2023-05-23T07:29:17.638Z,5.65
2023-05-23T07:31:43.612Z,7.38
2023-05-23T07:34:09.714Z,7.93
2023-05-23T07:36:38.113Z,8.25
2023-05-23T07:39:04.090Z,7.35
2023-05-23T07:41:30.294Z,8.88
2023-05-23T07:43:56.473Z,8.63
2023-05-23T07:46:22.528Z,6.65
2023-05-23T07:48:48.686Z,5.35
2023-05-23T07:51:15.292Z,5.93
2023-05-23T07:53:41.216Z,5.10
2023-05-23T07:56:07.466Z,5.28
2023-05-23T07:58:33.490Z,5.18
2023-05-23T08:01:00.465Z,8.05
2023-05-23T08:03:26.660Z,8.50
2023-05-23T08:05:52.514Z,7.15
2023-05-23T08:08:18.630Z,8.73
2023-05-23T08:10:45.309Z,9.80
2023-05-23T08:13:11.425Z,8.73
2023-05-23T08:15:37.451Z,7.07
2023-05-23T08:18:07.469Z,7.20
2023-05-23T08:20:33.521Z,9.25
2023-05-23T08:22:59.847Z,9.45
2023-05-23T08:25:29.931Z,8.35
2023-05-23T08:27:58.886Z,10.45
2023-05-23T08:30:28.470Z,7.35
2023-05-23T08:32:55.968Z,6.97
2023-05-23T08:35:23.022Z,6.82
2023-05-23T08:37:49.796Z,8.02
2023-05-23T08:40:20.907Z,9.50
2023-05-23T08:42:48.053Z,14.40
2023-05-23T08:45:14.895Z,7.25
2023-05-23T08:47:45.535Z,7.60
2023-05-23T08:52:40.484Z,6.82
2023-05-23T08:55:06.761Z,6.20
2023-05-23T08:57:33.568Z,7.55
2023-05-23T09:00:00.222Z,9.00
2023-05-23T09:02:26.290Z,7.70
2023-05-23T09:04:53.211Z,7.10
2023-05-23T09:07:19.744Z,8.13
2023-05-23T09:09:46.108Z,9.15
2023-05-23T09:12:12.968Z,9.90
2023-05-23T09:14:42.169Z,10.50
2023-05-23T09:17:08.061Z,8.45
2023-05-23T09:19:34.101Z,7.97
2023-05-23T09:22:01.916Z,11.88
2023-05-23T09:24:36.848Z,8.50
2023-05-23T09:27:04.743Z,9.27
2023-05-23T09:29:30.724Z,14.20
2023-05-23T09:32:09.813Z,7.85
2023-05-23T09:34:35.954Z,9.00
2023-05-23T09:37:03.278Z,10.18
2023-05-23T09:39:29.466Z,11.38
2023-05-23T09:41:55.562Z,52.38
2023-05-23T09:44:27.764Z,13.65
2023-05-23T09:46:53.891Z,15.20
2023-05-23T09:49:22.010Z,12.60
2023-05-23T09:51:57.947Z,14.15
2023-05-23T09:54:24.592Z,15.30
2023-05-23T09:56:52.385Z,19.40
2023-05-23T09:59:23.697Z,20.48
2023-05-23T10:01:51.231Z,14.77
2023-05-23T10:04:20.848Z,13.80
2023-05-23T10:06:52.728Z,15.80
2023-05-23T10:09:20.277Z,17.23
2023-05-23T10:11:52.853Z,15.77
2023-05-23T10:14:21.927Z,16.42
2023-05-23T10:16:57.107Z,16.85
2023-05-23T10:19:35.816Z,21.17
2023-05-23T10:22:06.974Z,19.08
2023-05-23T10:24:33.463Z,18.20
2023-05-23T10:26:59.632Z,16.23
2023-05-23T10:29:27.167Z,21.25
2023-05-23T10:31:53.709Z,15.40
2023-05-23T10:34:20.532Z,15.48
2023-05-23T10:37:03.618Z,15.27
2023-05-23T10:39:38.685Z,17.77
2023-05-23T10:42:10.498Z,15.52
2023-05-23T10:44:45.348Z,17.13
2023-05-23T10:47:14.848Z,14.52
2023-05-23T10:49:45.395Z,17.67
2023-05-23T10:52:12.504Z,20.20
2023-05-23T10:54:44.554Z,14.23
2023-05-23T10:57:12.327Z,15.15
2023-05-23T10:59:39.167Z,16.25
2023-05-23T11:02:09.281Z,15.02
2023-05-23T11:04:35.655Z,14.30
2023-05-23T11:07:02.231Z,15.45
2023-05-23T11:09:28.216Z,12.95
2023-05-23T11:11:57.580Z,12.07
2023-05-23T11:14:38.958Z,12.55
2023-05-23T11:17:18.840Z,11.38
2023-05-23T11:20:08.377Z,13.68
2023-05-23T11:22:35.980Z,12.15
2023-05-23T11:25:07.014Z,11.52
2023-05-23T11:27:34.148Z,12.48
2023-05-23T11:30:08.035Z,11.25
2023-05-23T11:32:34.387Z,14.02
2023-05-23T11:35:01.553Z,11.07
2023-05-23T11:37:27.950Z,11.57
2023-05-23T11:39:54.509Z,12.70
2023-05-23T11:42:20.470Z,11.40
2023-05-23T11:44:49.345Z,12.35
2023-05-23T11:47:15.192Z,12.18
2023-05-23T11:49:43.713Z,11.48
2023-05-23T11:52:09.859Z,11.95
2023-05-23T11:54:36.693Z,11.88
2023-05-23T11:57:03.171Z,10.73
2023-05-23T11:59:29.350Z,10.70
2023-05-23T12:01:56.110Z,10.15
2023-05-23T12:04:22.363Z,10.60
2023-05-23T12:06:49.338Z,9.40
2023-05-23T12:09:15.754Z,11.20
2023-05-23T12:11:42.573Z,11.45
2023-05-23T12:14:15.863Z,11.82
2023-05-23T12:16:43.904Z,11.38
2023-05-23T12:19:10.005Z,10.30
2023-05-23T12:21:48.877Z,9.70
2023-05-23T12:24:17.643Z,10.95
2023-05-23T12:26:51.454Z,12.70
2023-05-23T12:29:35.190Z,11.93
2023-05-23T12:32:02.252Z,11.75
2023-05-23T12:34:28.549Z,12.73
2023-05-23T12:37:06.343Z,9.57
2023-05-23T12:39:44.067Z,11.20
2023-05-23T12:42:10.574Z,11.70
2023-05-23T12:44:58.441Z,10.65
2023-05-23T12:47:24.555Z,10.45
2023-05-23T12:49:50.491Z,14.10
2023-05-23T12:52:16.715Z,11.55
2023-05-23T12:54:44.464Z,9.18
2023-05-23T12:57:10.883Z,12.60
2023-05-23T12:59:36.952Z,16.10
2023-05-23T13:02:03.054Z,13.98
2023-05-23T13:04:31.224Z,14.18
2023-05-23T13:06:58.142Z,14.80
2023-05-23T13:09:24.335Z,18.05
2023-05-23T13:11:50.303Z,14.57
2023-05-23T13:14:31.770Z,15.77
2023-05-23T13:16:58.365Z,17.10
2023-05-23T13:19:24.865Z,18.15
2023-05-23T13:21:51.037Z,18.13
2023-05-23T13:24:17.367Z,20.30
2023-05-23T13:26:43.319Z,19.15
2023-05-23T13:29:09.185Z,20.20
2023-05-23T13:31:35.165Z,25.25
2023-05-23T13:34:01.083Z,19.38
2023-05-23T13:36:27.249Z,20.30
2023-05-23T13:38:53.212Z,21.85
2023-05-23T13:41:19.299Z,19.70
2023-05-23T13:43:45.241Z,18.90
2023-05-23T13:46:12.732Z,19.85
2023-05-23T13:48:40.088Z,18.85
2023-05-23T13:51:06.264Z,19.70
2023-05-23T13:53:32.367Z,18.73
2023-05-23T13:55:58.292Z,18.58
2023-05-23T13:58:24.649Z,19.08
2023-05-23T14:00:50.563Z,23.63
2023-05-23T14:03:19.190Z,20.35
2023-05-23T14:05:45.275Z,16.85
2023-05-23T14:08:13.285Z,18.08
2023-05-23T14:10:40.183Z,15.95
2023-05-23T14:13:07.634Z,16.48
2023-05-23T14:15:34.675Z,18.35
2023-05-23T14:18:01.067Z,15.15
2023-05-23T14:20:28.261Z,13.02
2023-05-23T14:22:54.267Z,16.20
2023-05-23T14:25:20.211Z,13.82
2023-05-23T14:27:46.436Z,17.13
2023-05-23T14:30:13.524Z,17.50
2023-05-23T14:32:39.962Z,21.77
2023-05-23T14:35:06.772Z,14.07
2023-05-23T14:37:32.787Z,8.40
2023-05-23T14:39:58.925Z,12.45
2023-05-23T14:42:37.296Z,10.95
2023-05-23T14:45:03.516Z,9.38
2023-05-23T14:47:30.252Z,11.75
2023-05-23T14:49:56.555Z,11.10
2023-05-23T14:52:22.542Z,10.18
2023-05-23T14:54:48.528Z,8.20
2023-05-23T14:57:14.779Z,11.73
2023-05-23T14:59:40.800Z,9.65
2023-05-23T15:02:07.704Z,14.85
2023-05-23T15:04:33.833Z,9.25
2023-05-23T15:07:00.362Z,10.15
2023-05-23T15:09:26.799Z,9.75
2023-05-23T15:11:52.767Z,8.55
2023-05-23T15:14:18.858Z,10.85
2023-05-23T15:16:45.332Z,8.35
2023-05-23T15:19:12.089Z,10.93
2023-05-23T15:21:38.477Z,6.00
2023-05-23T15:24:05.589Z,7.15
2023-05-23T15:26:31.583Z,9.10
2023-05-23T15:28:57.614Z,8.07
2023-05-23T15:31:23.600Z,7.13
2023-05-23T15:33:49.624Z,7.38
2023-05-23T15:36:15.777Z,7.32
2023-05-23T15:38:41.768Z,9.45
2023-05-23T15:41:08.361Z,9.52
2023-05-23T15:43:34.816Z,6.90
2023-05-23T15:46:01.163Z,9.38
2023-05-23T15:48:27.383Z,7.63
2023-05-23T15:50:53.970Z,9.20
2023-05-23T15:53:20.761Z,9.90
2023-05-23T15:55:46.852Z,7.35
2023-05-23T15:58:13.174Z,12.10
2023-05-23T16:00:39.806Z,8.77
2023-05-23T16:03:06.033Z,8.30
2023-05-23T16:05:43.311Z,8.63
2023-05-23T16:08:17.206Z,11.80
2023-05-23T16:10:43.089Z,7.88
2023-05-23T16:13:56.105Z,8.02
2023-05-23T16:16:22.316Z,8.85
2023-05-23T16:18:48.957Z,6.30
2023-05-23T16:21:19.724Z,6.28
2023-05-23T16:26:11.889Z,9.20
2023-05-23T16:28:37.918Z,4.20
2023-05-23T16:31:03.953Z,4.38
2023-05-23T16:33:30.053Z,2.85
2023-05-23T16:35:57.046Z,1.77
2023-05-23T16:38:22.985Z,3.25
2023-05-23T16:40:48.983Z,2.78
2023-05-23T16:43:15.815Z,2.63
2023-05-23T16:45:42.171Z,3.67
2023-05-23T16:48:08.349Z,2.75
2023-05-23T16:50:34.344Z,2.75
2023-05-23T16:53:02.852Z,4.45
2023-05-23T16:55:29.237Z,2.60
2023-05-23T16:57:55.615Z,3.67
2023-05-23T17:00:21.584Z,4.13
2023-05-23T17:02:48.079Z,4.38
2023-05-23T17:05:14.322Z,3.10
2023-05-23T17:07:40.591Z,3.85
2023-05-23T17:10:07.313Z,3.75
2023-05-23T17:13:01.467Z,3.60
2023-05-23T17:15:29.907Z,2.55
2023-05-23T17:23:20.336Z,6.00
2023-05-23T17:25:46.461Z,2.75
2023-05-23T17:28:13.857Z,5.32
2023-05-23T17:33:48.510Z,3.97
2023-05-23T17:36:14.535Z,2.92
2023-05-23T17:38:41.504Z,3.60
2023-05-23T17:43:48.428Z,7.40
2023-05-23T17:46:14.450Z,5.35
2023-05-23T17:48:47.814Z,7.47
2023-05-23T17:51:15.175Z,6.53
2023-05-23T17:53:45.414Z,6.20
2023-05-23T17:56:11.384Z,7.00
2023-05-23T17:58:38.187Z,6.15
2023-05-23T18:01:05.175Z,11.32
2023-05-23T18:06:29.086Z,6.53
2023-05-23T18:09:09.363Z,8.38
2023-05-23T18:11:35.410Z,8.63
2023-05-23T18:14:04.855Z,8.32
2023-05-23T18:16:37.948Z,7.15
2023-05-23T18:19:05.737Z,10.45
2023-05-23T18:21:35.082Z,11.32
2023-05-23T18:24:04.529Z,11.90
2023-05-23T18:26:32.612Z,5.65
2023-05-23T18:29:02.325Z,8.93
2023-05-23T18:31:37.653Z,8.30
2023-05-23T18:34:08.694Z,7.82
2023-05-23T18:37:10.726Z,10.35
2023-05-23T18:39:40.566Z,14.45
2023-05-23T18:42:10.447Z,10.75
2023-05-23T18:44:39.262Z,9.32
2023-05-23T18:47:06.546Z,10.98
2023-05-23T18:49:34.085Z,7.80
2023-05-23T18:52:00.360Z,12.43
2023-05-23T18:54:26.695Z,12.80
2023-05-23T18:56:53.635Z,10.55
2023-05-23T18:59:21.593Z,8.73
2023-05-23T19:01:56.530Z,10.05
2023-05-23T19:04:24.770Z,7.85
2023-05-23T19:06:51.853Z,11.70
2023-05-23T19:09:17.915Z,14.75
2023-05-23T19:11:45.596Z,9.10
2023-05-23T19:17:34.783Z,10.45
2023-05-23T19:20:00.736Z,15.32
2023-05-23T19:22:31.413Z,12.85
2023-05-23T19:25:03.511Z,13.32
2023-05-23T19:30:11.658Z,18.30
2023-05-23T19:32:37.646Z,11.43
2023-05-23T19:35:04.028Z,15.57
2023-05-23T19:37:30.290Z,15.48
2023-05-23T19:39:58.229Z,13.98
2023-05-23T19:42:24.339Z,11.93
2023-05-23T19:44:51.049Z,10.77
2023-05-23T19:47:18.088Z,13.40
2023-05-23T19:49:43.958Z,11.63
2023-05-23T19:52:10.175Z,13.15
2023-05-23T19:54:36.594Z,9.40
2023-05-23T19:57:04.128Z,9.82
2023-05-23T19:59:30.420Z,13.95
2023-05-23T20:01:56.297Z,14.40
2023-05-23T20:04:24.745Z,9.05
2023-05-23T20:06:52.715Z,12.90
2023-05-23T20:09:18.575Z,15.35
2023-05-23T20:11:44.598Z,11.43
2023-05-23T20:14:10.815Z,11.90
2023-05-23T20:16:38.700Z,13.93
2023-05-23T20:19:05.106Z,11.38
2023-05-23T20:21:31.673Z,14.98
2023-05-23T20:23:57.808Z,14.65
2023-05-23T20:26:23.835Z,10.13
2023-05-23T20:28:49.836Z,13.82
2023-05-23T20:31:16.850Z,17.40
2023-05-23T20:33:43.405Z,11.23
2023-05-23T20:36:12.012Z,13.55
2023-05-23T20:38:37.933Z,15.45
2023-05-23T20:41:07.005Z,12.48
2023-05-23T20:43:39.157Z,11.63
2023-05-23T20:46:05.716Z,20.23
2023-05-23T20:48:32.119Z,21.48
2023-05-23T20:50:59.376Z,15.13
2023-05-23T20:53:25.653Z,15.18
2023-05-23T20:55:51.858Z,14.63
2023-05-23T20:58:17.969Z,20.40
2023-05-23T21:00:44.267Z,12.82
2023-05-23T21:03:10.651Z,12.73
2023-05-23T21:05:36.579Z,8.52
2023-05-23T21:08:02.522Z,16.92
2023-05-23T21:10:28.685Z,11.18
2023-05-23T21:13:04.161Z,11.63
2023-05-23T21:15:30.121Z,11.63
2023-05-23T21:17:56.723Z,13.57
2023-05-23T21:20:22.770Z,11.57
2023-05-23T21:22:48.894Z,11.82
2023-05-23T21:25:14.806Z,8.93
2023-05-23T21:27:40.625Z,16.65
2023-05-23T21:30:07.124Z,11.77
2023-05-23T21:32:33.008Z,11.50
2023-05-23T21:34:59.010Z,16.45
2023-05-23T21:37:24.969Z,17.00
2023-05-23T21:39:52.344Z,13.88
2023-05-23T21:42:19.029Z,14.30
2023-05-23T21:44:45.574Z,9.68
2023-05-23T21:47:11.528Z,11.25
2023-05-23T21:49:37.384Z,11.80
2023-05-23T21:52:06.142Z,14.07
2023-05-23T21:54:31.912Z,11.95
2023-05-23T21:56:57.878Z,9.40
2023-05-23T21:59:23.723Z,16.13
2023-05-23T22:01:49.690Z,10.18
2023-05-23T22:04:19.271Z,14.68
2023-05-23T22:06:45.380Z,14.52
2023-05-23T22:09:11.488Z,11.68
2023-05-23T22:11:37.653Z,13.02
2023-05-23T22:14:03.495Z,15.63
2023-05-23T22:16:32.116Z,15.18
2023-05-23T22:18:58.461Z,15.85
2023-05-23T22:21:25.119Z,14.15
2023-05-23T22:23:51.683Z,14.98
2023-05-23T22:26:18.216Z,14.63
2023-05-23T22:28:44.028Z,12.00
2023-05-23T22:31:12.099Z,15.20
2023-05-23T22:33:39.351Z,16.63
2023-05-23T22:36:05.645Z,27.45
2023-05-23T22:38:31.814Z,16.67
2023-05-23T22:40:57.643Z,14.15
2023-05-23T22:43:23.548Z,13.27
2023-05-23T22:45:49.547Z,17.23
2023-05-23T22:48:16.226Z,15.90
2023-05-23T22:50:42.267Z,10.02
2023-05-23T22:53:08.368Z,12.70
2023-05-23T22:55:34.535Z,13.75
2023-05-23T22:58:00.644Z,15.77
2023-05-23T23:00:26.566Z,13.50
2023-05-23T23:02:53.413Z,10.50
2023-05-23T23:05:19.640Z,16.00
2023-05-23T23:07:45.869Z,11.95
2023-05-23T23:10:11.893Z,11.25
2023-05-23T23:12:37.709Z,22.33
2023-05-23T23:15:03.936Z,17.27
2023-05-23T23:17:30.005Z,20.95
2023-05-23T23:19:57.143Z,11.15
2023-05-23T23:22:23.969Z,21.35
2023-05-23T23:24:49.914Z,16.67
2023-05-23T23:27:15.860Z,10.63
2023-05-23T23:29:41.647Z,21.48
2023-05-23T23:32:07.411Z,11.50
2023-05-23T23:34:33.182Z,19.15
2023-05-23T23:36:59.068Z,12.10
2023-05-23T23:39:24.851Z,17.90
2023-05-23T23:41:50.667Z,16.20
2023-05-23T23:44:16.417Z,18.23
2023-05-23T23:46:42.290Z,17.70
2023-05-23T23:49:08.092Z,13.95
2023-05-23T23:51:33.823Z,13.30
2023-05-23T23:53:59.709Z,13.85
2023-05-23T23:56:25.694Z,10.25
2023-05-23T23:58:51.470Z,18.08
